createdAt,value
2023-05-23T00:01:28.040Z,101070.78
2023-05-23T00:06:29.642Z,101065.53
2023-05-23T00:11:31.334Z,101065.00
2023-05-23T00:16:33.131Z,101072.28
2023-05-23T00:21:34.724Z,101076.56
2023-05-23T00:26:36.685Z,101079.69
2023-05-23T00:31:38.461Z,101074.28
2023-05-23T00:36:40.479Z,101073.16
2023-05-23T00:41:42.053Z,101074.50
2023-05-23T00:46:45.513Z,101074.34
2023-05-23T00:51:48.409Z,101080.13
2023-05-23T00:56:50.621Z,101083.03
2023-05-23T01:01:55.822Z,101087.53
2023-05-23T01:06:57.786Z,101083.09
2023-05-23T01:12:17.694Z,101086.88
2023-05-23T01:17:26.690Z,101093.00
2023-05-23T01:22:41.628Z,101092.19
2023-05-23T01:27:51.197Z,101098.78
2023-05-23T01:32:55.874Z,101095.78
2023-05-23T01:37:57.736Z,101095.94
2023-05-23T01:42:59.461Z,101088.31
2023-05-23T01:48:04.083Z,101094.63
2023-05-23T01:53:06.983Z,101095.66
2023-05-23T01:58:09.098Z,101099.69
2023-05-23T02:03:10.910Z,101105.88
2023-05-23T02:08:12.538Z,101118.09
2023-05-23T02:13:14.105Z,101111.75
2023-05-23T02:18:15.686Z,101115.19
2023-05-23T02:23:18.195Z,101121.38
2023-05-23T02:28:20.261Z,101128.56
2023-05-23T02:33:24.194Z,101135.25
2023-05-23T02:38:26.708Z,101140.34
2023-05-23T02:43:28.597Z,101138.28
2023-05-23T02:48:30.256Z,101141.59
2023-05-23T02:53:32.066Z,101129.97
2023-05-23T02:58:33.790Z,101137.75
2023-05-23T03:03:35.514Z,101134.88
2023-05-23T03:08:37.190Z,101129.81
2023-05-23T03:13:39.776Z,101133.94
2023-05-23T03:18:43.233Z,101131.44
2023-05-23T03:23:44.843Z,101135.13
2023-05-23T03:28:46.467Z,101137.00
2023-05-23T03:33:48.011Z,101150.16
2023-05-23T03:38:50.828Z,101152.56
2023-05-23T03:43:52.799Z,101146.88
2023-05-23T03:48:54.559Z,101155.25
2023-05-23T03:53:57.422Z,101161.38
2023-05-23T03:58:59.413Z,101152.03
2023-05-23T04:04:01.341Z,101157.75
2023-05-23T04:09:07.492Z,101161.88
2023-05-23T04:14:13.787Z,101162.47
2023-05-23T04:19:16.362Z,101166.34
2023-05-23T04:24:18.491Z,101168.97
2023-05-23T04:29:20.274Z,101172.38
2023-05-23T04:34:23.331Z,101182.78
2023-05-23T04:39:24.965Z,101183.19
2023-05-23T04:44:52.391Z,101177.06
2023-05-23T04:49:58.976Z,101188.53
2023-05-23T04:55:01.108Z,101189.41
2023-05-23T05:00:06.561Z,101186.91
2023-05-23T05:05:10.133Z,101197.13
2023-05-23T05:10:11.865Z,101201.78
2023-05-23T05:15:13.637Z,101208.56
2023-05-23T05:20:17.074Z,101210.25
2023-05-23T05:25:18.820Z,101209.84
2023-05-23T05:30:20.640Z,101210.47
2023-05-23T05:35:33.129Z,101215.31
2023-05-23T05:40:34.989Z,101222.13
2023-05-23T05:45:37.351Z,101219.63
2023-05-23T05:50:39.501Z,101218.31
2023-05-23T05:55:42.189Z,101219.56
2023-05-23T06:00:44.094Z,101232.66
2023-05-23T06:05:45.744Z,101232.66
2023-05-23T06:10:47.340Z,101248.97
2023-05-23T06:15:49.112Z,101253.28
2023-05-23T06:20:50.709Z,101241.72
2023-05-23T06:25:53.676Z,101246.72
2023-05-23T06:30:55.468Z,101253.50
2023-05-23T06:35:57.038Z,101250.47
2023-05-23T06:40:58.635Z,101251.91
2023-05-23T06:46:00.991Z,101260.16
2023-05-23T06:51:03.874Z,101263.63
2023-05-23T06:56:06.098Z,101264.25
2023-05-23T07:01:14.970Z,101272.22
2023-05-23T07:06:21.195Z,101282.03
2023-05-23T07:11:23.070Z,101290.13
2023-05-23T07:16:29.404Z,101277.34
2023-05-23T07:21:38.335Z,101286.38
2023-05-23T07:26:41.696Z,101287.91
2023-05-23T07:31:43.504Z,101295.25
2023-05-23T07:36:47.203Z,101299.97
2023-05-23T07:41:50.305Z,101292.81
2023-05-23T07:46:53.473Z,101292.91
2023-05-23T07:51:56.268Z,101302.41
2023-05-23T07:56:58.098Z,101310.31
2023-05-23T08:02:00.520Z,101320.97
2023-05-23T08:07:05.896Z,101317.38
2023-05-23T08:12:25.752Z,101327.56
2023-05-23T08:17:36.286Z,101330.22
2023-05-23T08:22:38.511Z,101334.44
2023-05-23T08:27:40.836Z,101337.19
2023-05-23T08:33:05.780Z,101335.56
2023-05-23T08:38:09.626Z,101343.13
2023-05-23T08:43:16.681Z,101352.88
2023-05-23T08:48:20.400Z,101348.38
2023-05-23T08:53:27.248Z,101356.50
2023-05-23T08:58:36.229Z,101354.38
2023-05-23T09:03:39.314Z,101365.72
2023-05-23T09:08:51.036Z,101366.50
2023-05-23T09:13:55.174Z,101373.44
2023-05-23T09:18:58.464Z,101378.13
2023-05-23T09:24:02.858Z,101381.06
2023-05-23T09:29:06.378Z,101385.31
2023-05-23T09:34:08.114Z,101389.84
2023-05-23T09:39:12.004Z,101387.56
2023-05-23T09:44:14.065Z,101397.44
2023-05-23T09:49:17.525Z,101391.22
2023-05-23T09:54:20.702Z,101391.84
2023-05-23T09:59:23.392Z,101389.38
2023-05-23T10:04:26.056Z,101396.94
2023-05-23T10:09:33.039Z,101401.78
2023-05-23T10:14:40.770Z,101409.09
2023-05-23T10:20:01.012Z,101420.69
2023-05-23T10:25:06.179Z,101418.88
2023-05-23T10:30:08.809Z,101426.91
2023-05-23T10:35:25.067Z,101434.03
2023-05-23T10:40:26.675Z,101434.47
2023-05-23T10:45:28.533Z,101433.34
2023-05-23T10:50:35.308Z,101450.69
2023-05-23T10:55:37.642Z,101444.44
2023-05-23T11:00:39.649Z,101446.63
2023-05-23T11:05:47.919Z,101457.19
2023-05-23T11:10:53.374Z,101466.09
2023-05-23T11:15:55.055Z,101471.84
2023-05-23T11:21:00.855Z,101468.47
2023-05-23T11:26:02.367Z,101475.13
2023-05-23T11:31:04.109Z,101487.75
2023-05-23T11:36:07.254Z,101481.91
2023-05-23T11:41:08.821Z,101490.88
2023-05-23T11:46:10.604Z,101495.13
2023-05-23T11:51:12.595Z,101500.38
2023-05-23T11:56:15.124Z,101509.53
2023-05-23T12:01:16.800Z,101501.69
2023-05-23T12:06:22.865Z,101495.59
2023-05-23T12:11:24.451Z,101497.47
2023-05-23T12:16:27.962Z,101504.16
2023-05-23T12:21:46.153Z,101509.69
2023-05-23T12:26:50.797Z,101503.41
2023-05-23T12:31:52.815Z,101499.66
2023-05-23T12:37:18.107Z,101503.88
2023-05-23T12:42:20.993Z,101490.25
2023-05-23T12:47:22.756Z,101498.81
2023-05-23T12:52:24.350Z,101491.19
2023-05-23T12:57:25.890Z,101505.19
2023-05-23T13:02:28.499Z,101502.00
2023-05-23T13:07:30.759Z,101505.31
2023-05-23T13:12:32.329Z,101508.44
2023-05-23T13:17:34.066Z,101516.50
2023-05-23T13:22:35.689Z,101516.03
2023-05-23T13:27:37.409Z,101505.50
2023-05-23T13:32:39.069Z,101511.75
2023-05-23T13:37:40.831Z,101507.22
2023-05-23T13:42:42.451Z,101521.63
2023-05-23T13:47:44.524Z,101525.50
2023-05-23T13:52:49.015Z,101529.31
2023-05-23T13:57:51.911Z,101527.16
2023-05-23T14:02:53.531Z,101508.50
2023-05-23T14:07:55.194Z,101518.47
2023-05-23T14:12:56.922Z,101517.81
2023-05-23T14:17:58.463Z,101516.81
2023-05-23T14:23:00.138Z,101518.50
2023-05-23T14:28:01.761Z,101507.88
2023-05-23T14:33:03.526Z,101501.47
2023-05-23T14:38:05.190Z,101504.94
2023-05-23T14:43:06.839Z,101490.03
2023-05-23T14:48:10.231Z,101496.31
2023-05-23T14:53:11.878Z,101491.97
2023-05-23T14:58:13.592Z,101488.44
2023-05-23T15:03:15.733Z,101483.50
2023-05-23T15:08:17.636Z,101485.00
2023-05-23T15:13:19.275Z,101497.25
2023-05-23T15:18:35.737Z,101493.09
2023-05-23T15:23:41.956Z,101488.38
2023-05-23T15:28:43.754Z,101485.25
2023-05-23T15:33:45.542Z,101476.44
2023-05-23T15:38:47.314Z,101470.09
2023-05-23T15:43:48.862Z,101466.19
2023-05-23T15:48:50.456Z,101465.06
2023-05-23T15:58:56.760Z,101471.31
2023-05-23T16:03:58.469Z,101468.53
2023-05-23T16:09:00.159Z,101470.44
2023-05-23T16:14:01.900Z,101470.84
2023-05-23T16:19:03.686Z,101462.59
2023-05-23T16:24:05.571Z,101469.91
2023-05-23T16:29:07.230Z,101459.97
2023-05-23T16:34:08.798Z,101459.03
2023-05-23T16:39:11.158Z,101455.56
2023-05-23T16:44:13.903Z,101452.44
2023-05-23T16:49:15.505Z,101449.97
2023-05-23T16:54:17.089Z,101456.38
2023-05-23T16:59:18.767Z,101453.44
2023-05-23T17:04:20.581Z,101455.84
2023-05-23T17:09:22.607Z,101459.34
2023-05-23T17:14:24.243Z,101460.47
2023-05-23T17:19:26.122Z,101455.34
2023-05-23T17:24:27.762Z,101458.06
2023-05-23T17:29:29.330Z,101467.19
2023-05-23T17:34:30.900Z,101472.25
2023-05-23T17:39:32.489Z,101471.03
2023-05-23T17:44:34.184Z,101472.28
2023-05-23T17:49:35.768Z,101479.53
2023-05-23T17:54:37.426Z,101477.25
2023-05-23T17:59:38.993Z,101489.47
2023-05-23T18:04:41.990Z,101488.19
2023-05-23T18:09:43.883Z,101490.94
2023-05-23T18:14:45.597Z,101493.97
2023-05-23T18:19:47.226Z,101495.72
2023-05-23T18:24:48.848Z,101488.22
2023-05-23T18:29:50.445Z,101495.41
2023-05-23T18:34:52.058Z,101504.59
2023-05-23T18:39:54.049Z,101499.91
2023-05-23T18:44:55.620Z,101505.41
2023-05-23T18:49:57.250Z,101510.47
2023-05-23T18:54:58.818Z,101509.44
2023-05-23T19:00:00.592Z,101516.28
2023-05-23T19:05:02.535Z,101521.94
2023-05-23T19:10:05.161Z,101525.75
2023-05-23T19:15:09.793Z,101527.34
2023-05-23T19:20:11.890Z,101540.34
2023-05-23T19:25:13.570Z,101547.00
2023-05-23T19:30:15.267Z,101549.91
2023-05-23T19:35:17.383Z,101556.78
2023-05-23T19:40:19.253Z,101565.97
2023-05-23T19:45:20.864Z,101568.75
2023-05-23T19:50:22.499Z,101571.19
2023-05-23T19:55:24.150Z,101569.31
2023-05-23T20:00:25.889Z,101579.22
2023-05-23T20:05:27.472Z,101580.94
2023-05-23T20:10:30.258Z,101584.28
2023-05-23T20:20:40.206Z,101596.13
2023-05-23T20:25:42.099Z,101594.78
2023-05-23T20:30:43.807Z,101602.56
2023-05-23T20:35:45.555Z,101607.88
2023-05-23T20:40:47.122Z,101617.09
2023-05-23T20:45:48.713Z,101631.09
2023-05-23T20:50:50.330Z,101633.41
2023-05-23T20:55:52.246Z,101627.13
2023-05-23T21:00:53.960Z,101636.44
2023-05-23T21:05:55.513Z,101632.16
2023-05-23T21:10:57.084Z,101639.25
2023-05-23T21:15:58.711Z,101642.03
2023-05-23T21:21:00.277Z,101647.69
2023-05-23T21:26:01.959Z,101642.44
2023-05-23T21:31:03.710Z,101653.75
2023-05-23T21:36:05.421Z,101649.00
2023-05-23T21:41:07.063Z,101651.19
2023-05-23T21:46:08.745Z,101650.44
2023-05-23T21:51:10.470Z,101656.66
2023-05-23T21:56:12.048Z,101659.38
2023-05-23T22:01:14.185Z,101661.06
2023-05-23T22:06:15.890Z,101666.19
2023-05-23T22:11:17.533Z,101654.63
2023-05-23T22:16:19.152Z,101666.16
2023-05-23T22:21:20.727Z,101667.16
2023-05-23T22:26:22.319Z,101659.66
2023-05-23T22:31:24.383Z,101657.06
2023-05-23T22:36:26.221Z,101655.19
2023-05-23T22:41:28.351Z,101651.09
2023-05-23T22:46:29.952Z,101645.75
2023-05-23T22:51:31.491Z,101655.75
2023-05-23T22:56:33.155Z,101647.22
2023-05-23T23:01:34.917Z,101658.75
2023-05-23T23:06:36.718Z,101650.69
2023-05-23T23:11:38.352Z,101649.53
2023-05-23T23:16:39.916Z,101638.06
2023-05-23T23:21:41.495Z,101645.81
2023-05-23T23:26:43.261Z,101646.78
2023-05-23T23:31:44.901Z,101647.81
2023-05-23T23:36:46.530Z,101654.38
2023-05-23T23:41:48.066Z,101656.50
2023-05-23T23:46:49.732Z,101658.16
2023-05-23T23:51:51.383Z,101667.66
2023-05-23T23:56:52.973Z,101662.22
